JAL144 RJSA-RJTT
Flight info
| Callsign | JAL144 |
|---|---|
| Flight time | 1h 2m |
| Altitude | 32000 |
| Route | UWE Y320 RUBIS Y10 GODIN |
| Aircraft | B738/M-SDGIJ1LRWY/SB1 |
Departure
| Time | 2026-04-22 01:31 |
|---|---|
| Airport | Aomori Airport (RJSA) |
Arrival
| Time | 2026-04-22 02:33 |
|---|---|
| Airport | Tokyo Haneda International Airport (RJTT) |
| Time | Latitude | Longitude | Altitude | Speed | Heading |
|---|---|---|---|---|---|
| 2026-04-22 01:08 | 40.73781 | 140.68970 | 672 ft | 0 kts | 323° |
| 2026-04-22 01:22 | 40.73769 | 140.68982 | 671 ft | 2 kts | 324° |
| 2026-04-22 01:22 | 40.73756 | 140.68996 | 671 ft | 2 kts | 323° |
| 2026-04-22 01:22 | 40.73743 | 140.69008 | 671 ft | 2 kts | 324° |
| 2026-04-22 01:23 | 40.73730 | 140.69022 | 671 ft | 2 kts | 324° |
| 2026-04-22 01:23 | 40.73716 | 140.69034 | 671 ft | 2 kts | 324° |
| 2026-04-22 01:23 | 40.73703 | 140.69047 | 671 ft | 2 kts | 324° |
| 2026-04-22 01:23 | 40.73690 | 140.69060 | 671 ft | 2 kts | 343° |
| 2026-04-22 01:24 | 40.73672 | 140.69063 | 671 ft | 2 kts | 9° |
| 2026-04-22 01:24 | 40.73656 | 140.69054 | 671 ft | 2 kts | 36° |
| 2026-04-22 01:24 | 40.73648 | 140.69045 | 671 ft | 1 kts | 53° |
| 2026-04-22 01:24 | 40.73645 | 140.69040 | 671 ft | 0 kts | 53° |
| 2026-04-22 01:26 | 40.73663 | 140.69070 | 671 ft | 9 kts | 51° |
| 2026-04-22 01:26 | 40.73732 | 140.69185 | 671 ft | 15 kts | 52° |
| 2026-04-22 01:26 | 40.73809 | 140.69313 | 671 ft | 15 kts | 52° |
| 2026-04-22 01:27 | 40.73882 | 140.69437 | 671 ft | 15 kts | 52° |
| 2026-04-22 01:27 | 40.73959 | 140.69565 | 671 ft | 15 kts | 52° |
| 2026-04-22 01:27 | 40.74033 | 140.69688 | 671 ft | 15 kts | 52° |
| 2026-04-22 01:27 | 40.74106 | 140.69814 | 671 ft | 15 kts | 52° |
| 2026-04-22 01:28 | 40.74176 | 140.69931 | 671 ft | 15 kts | 52° |
| 2026-04-22 01:28 | 40.74237 | 140.70032 | 671 ft | 10 kts | 52° |
| 2026-04-22 01:28 | 40.74256 | 140.70117 | 671 ft | 9 kts | 107° |
| 2026-04-22 01:28 | 40.74234 | 140.70155 | 671 ft | 0 kts | 140° |
| 2026-04-22 01:29 | 40.74229 | 140.70161 | 671 ft | 2 kts | 141° |
| 2026-04-22 01:29 | 40.74209 | 140.70183 | 671 ft | 3 kts | 142° |
| 2026-04-22 01:29 | 40.74187 | 140.70206 | 671 ft | 2 kts | 147° |
| 2026-04-22 01:30 | 40.74168 | 140.70218 | 671 ft | 4 kts | 168° |
| 2026-04-22 01:30 | 40.74117 | 140.70186 | 671 ft | 8 kts | 230° |
| 2026-04-22 01:30 | 40.74067 | 140.70103 | 671 ft | 16 kts | 231° |
| 2026-04-22 01:30 | 40.73859 | 140.69753 | 671 ft | 78 kts | 232° |
| 2026-04-22 01:31 | 40.73346 | 140.68892 | 671 ft | 136 kts | 233° |
| 2026-04-22 01:31 | 40.72634 | 140.67722 | 1111 ft | 148 kts | 231° |
| 2026-04-22 01:31 | 40.71799 | 140.66760 | 1881 ft | 153 kts | 212° |
| 2026-04-22 01:31 | 40.70587 | 140.66682 | 2515 ft | 175 kts | 172° |
| 2026-04-22 01:32 | 40.69373 | 140.67343 | 3252 ft | 173 kts | 168° |
| 2026-04-22 01:32 | 40.68129 | 140.67999 | 3768 ft | 178 kts | 171° |
| 2026-04-22 01:32 | 40.66838 | 140.68643 | 4175 ft | 190 kts | 171° |
| 2026-04-22 01:32 | 40.65436 | 140.69319 | 4575 ft | 203 kts | 171° |
| 2026-04-22 01:33 | 40.63917 | 140.70036 | 4892 ft | 223 kts | 171° |
| 2026-04-22 01:33 | 40.62254 | 140.70824 | 5323 ft | 239 kts | 171° |
| 2026-04-22 01:33 | 40.60494 | 140.71637 | 5759 ft | 253 kts | 171° |
| 2026-04-22 01:33 | 40.58726 | 140.72446 | 6178 ft | 269 kts | 172° |
| 2026-04-22 01:34 | 40.56767 | 140.73343 | 6822 ft | 277 kts | 171° |
| 2026-04-22 01:34 | 40.54736 | 140.74292 | 7556 ft | 284 kts | 171° |
| 2026-04-22 01:34 | 40.52690 | 140.75252 | 8339 ft | 288 kts | 171° |
| 2026-04-22 01:34 | 40.50626 | 140.76233 | 9161 ft | 291 kts | 171° |
| 2026-04-22 01:35 | 40.48624 | 140.77200 | 9855 ft | 297 kts | 171° |
| 2026-04-22 01:35 | 40.46688 | 140.78143 | 10546 ft | 303 kts | 171° |
| 2026-04-22 01:35 | 40.44712 | 140.79105 | 11369 ft | 303 kts | 171° |
| 2026-04-22 01:35 | 40.42713 | 140.80074 | 12019 ft | 311 kts | 171° |
| 2026-04-22 01:36 | 40.40524 | 140.81142 | 12760 ft | 318 kts | 171° |
| 2026-04-22 01:36 | 40.38230 | 140.82246 | 13283 ft | 332 kts | 171° |
| 2026-04-22 01:36 | 40.35984 | 140.83305 | 13721 ft | 347 kts | 171° |
| 2026-04-22 01:36 | 40.33685 | 140.84357 | 14065 ft | 364 kts | 171° |
| 2026-04-22 01:37 | 40.31209 | 140.85458 | 14491 ft | 379 kts | 171° |
| 2026-04-22 01:37 | 40.28669 | 140.86583 | 15069 ft | 389 kts | 171° |
| 2026-04-22 01:37 | 40.26104 | 140.87715 | 15912 ft | 390 kts | 171° |
| 2026-04-22 01:37 | 40.23336 | 140.88934 | 16701 ft | 394 kts | 172° |
| 2026-04-22 01:38 | 40.20486 | 140.89917 | 17255 ft | 398 kts | 178° |
| 2026-04-22 01:38 | 40.17817 | 140.90605 | 18026 ft | 398 kts | 180° |
| 2026-04-22 01:38 | 40.15036 | 140.91251 | 18712 ft | 402 kts | 181° |
| 2026-04-22 01:38 | 40.12311 | 140.91873 | 19359 ft | 406 kts | 181° |
| 2026-04-22 01:39 | 40.09501 | 140.92526 | 19990 ft | 410 kts | 181° |
| 2026-04-22 01:39 | 40.06683 | 140.93184 | 20561 ft | 415 kts | 181° |
| 2026-04-22 01:39 | 40.03881 | 140.93860 | 21312 ft | 414 kts | 181° |
| 2026-04-22 01:39 | 40.00894 | 140.94601 | 21783 ft | 422 kts | 181° |
| 2026-04-22 01:40 | 39.98006 | 140.95279 | 22547 ft | 418 kts | 182° |
| 2026-04-22 01:40 | 39.95154 | 140.95903 | 22971 ft | 424 kts | 183° |
| 2026-04-22 01:40 | 39.92231 | 140.96523 | 23484 ft | 427 kts | 184° |
| 2026-04-22 01:40 | 39.89318 | 140.97160 | 24210 ft | 426 kts | 183° |
| 2026-04-22 01:41 | 39.86386 | 140.97807 | 24782 ft | 428 kts | 184° |
| 2026-04-22 01:41 | 39.83411 | 140.98492 | 25396 ft | 430 kts | 183° |
| 2026-04-22 01:41 | 39.80125 | 140.99234 | 25681 ft | 438 kts | 185° |
| 2026-04-22 01:41 | 39.76991 | 140.99513 | 26629 ft | 412 kts | 195° |
| 2026-04-22 01:42 | 39.74203 | 140.99190 | 27139 ft | 397 kts | 204° |
| 2026-04-22 01:42 | 39.71498 | 140.98448 | 27533 ft | 395 kts | 207° |
| 2026-04-22 01:42 | 39.68848 | 140.97591 | 28312 ft | 389 kts | 208° |
| 2026-04-22 01:42 | 39.66264 | 140.96805 | 29249 ft | 380 kts | 207° |
| 2026-04-22 01:43 | 39.63725 | 140.96104 | 29901 ft | 378 kts | 207° |
| 2026-04-22 01:43 | 39.61107 | 140.95447 | 30145 ft | 387 kts | 206° |
| 2026-04-22 01:43 | 39.58228 | 140.94798 | 30512 ft | 393 kts | 204° |
| 2026-04-22 01:43 | 39.55255 | 140.94205 | 31088 ft | 394 kts | 205° |
| 2026-04-22 01:44 | 39.52393 | 140.93674 | 31557 ft | 395 kts | 204° |
| 2026-04-22 01:44 | 39.49704 | 140.93196 | 31894 ft | 394 kts | 204° |
| 2026-04-22 01:44 | 39.44294 | 140.92274 | 31877 ft | 386 kts | 205° |
| 2026-04-22 01:45 | 39.38659 | 140.91303 | 31897 ft | 388 kts | 204° |
| 2026-04-22 01:45 | 39.33293 | 140.90355 | 31888 ft | 389 kts | 203° |
| 2026-04-22 01:46 | 39.27947 | 140.89432 | 31884 ft | 385 kts | 204° |
| 2026-04-22 01:46 | 39.22056 | 140.88402 | 31891 ft | 391 kts | 203° |
| 2026-04-22 01:47 | 39.16631 | 140.87477 | 31914 ft | 391 kts | 203° |
| 2026-04-22 01:47 | 39.11201 | 140.86540 | 31929 ft | 394 kts | 204° |
| 2026-04-22 01:48 | 39.05812 | 140.85625 | 31923 ft | 391 kts | 204° |
| 2026-04-22 01:48 | 39.00500 | 140.84729 | 31919 ft | 388 kts | 203° |
| 2026-04-22 01:49 | 38.95130 | 140.83798 | 31924 ft | 389 kts | 203° |
| 2026-04-22 01:49 | 38.89760 | 140.82871 | 31927 ft | 390 kts | 203° |
| 2026-04-22 01:50 | 38.84415 | 140.81972 | 31930 ft | 387 kts | 204° |
| 2026-04-22 01:50 | 38.79041 | 140.81049 | 31928 ft | 389 kts | 203° |
| 2026-04-22 01:51 | 38.73624 | 140.80121 | 31920 ft | 390 kts | 204° |
| 2026-04-22 01:51 | 38.68219 | 140.79215 | 31919 ft | 388 kts | 203° |
| 2026-04-22 01:52 | 38.62433 | 140.78230 | 31920 ft | 388 kts | 203° |
| 2026-04-22 01:52 | 38.56879 | 140.77284 | 31921 ft | 392 kts | 203° |
| 2026-04-22 01:53 | 38.51453 | 140.76369 | 31937 ft | 393 kts | 203° |
| 2026-04-22 01:53 | 38.46075 | 140.75472 | 31932 ft | 389 kts | 203° |
| 2026-04-22 01:54 | 38.40642 | 140.74545 | 31943 ft | 393 kts | 202° |
| 2026-04-22 01:54 | 38.35207 | 140.73627 | 31942 ft | 395 kts | 202° |
| 2026-04-22 01:55 | 38.29822 | 140.72736 | 31952 ft | 390 kts | 203° |
| 2026-04-22 01:55 | 38.24405 | 140.71819 | 31949 ft | 393 kts | 203° |
| 2026-04-22 01:56 | 38.18973 | 140.70909 | 31948 ft | 393 kts | 202° |
| 2026-04-22 01:56 | 38.13540 | 140.69998 | 31959 ft | 394 kts | 202° |
| 2026-04-22 01:57 | 38.07860 | 140.69049 | 31946 ft | 396 kts | 202° |
| 2026-04-22 01:57 | 38.02265 | 140.68117 | 31945 ft | 391 kts | 201° |
| 2026-04-22 01:58 | 37.96874 | 140.67229 | 31950 ft | 391 kts | 202° |
| 2026-04-22 01:58 | 37.91317 | 140.66296 | 31958 ft | 393 kts | 202° |
| 2026-04-22 01:59 | 37.85807 | 140.65375 | 31963 ft | 395 kts | 201° |
| 2026-04-22 01:59 | 37.80676 | 140.64529 | 31958 ft | 393 kts | 202° |
| 2026-04-22 02:00 | 37.75234 | 140.63631 | 31956 ft | 389 kts | 202° |
| 2026-04-22 02:00 | 37.69930 | 140.62360 | 31955 ft | 387 kts | 207° |
| 2026-04-22 02:01 | 37.64715 | 140.60785 | 31957 ft | 385 kts | 208° |
| 2026-04-22 02:01 | 37.59526 | 140.59224 | 31784 ft | 378 kts | 207° |
| 2026-04-22 02:02 | 37.56997 | 140.58495 | 31579 ft | 367 kts | 206° |
| 2026-04-22 02:02 | 37.54517 | 140.57787 | 31223 ft | 360 kts | 207° |
| 2026-04-22 02:02 | 37.52102 | 140.57091 | 30801 ft | 355 kts | 207° |
| 2026-04-22 02:02 | 37.49726 | 140.56403 | 30365 ft | 350 kts | 207° |
| 2026-04-22 02:03 | 37.47375 | 140.55722 | 29927 ft | 346 kts | 207° |
| 2026-04-22 02:03 | 37.44979 | 140.55031 | 29479 ft | 342 kts | 207° |
| 2026-04-22 02:03 | 37.42608 | 140.54341 | 29072 ft | 348 kts | 207° |
| 2026-04-22 02:03 | 37.40179 | 140.53615 | 28613 ft | 365 kts | 206° |
| 2026-04-22 02:04 | 37.34871 | 140.52078 | 27618 ft | 362 kts | 206° |
| 2026-04-22 02:04 | 37.32428 | 140.51392 | 27161 ft | 358 kts | 205° |
| 2026-04-22 02:04 | 37.29991 | 140.50708 | 26703 ft | 353 kts | 206° |
| 2026-04-22 02:05 | 37.27597 | 140.50030 | 26259 ft | 348 kts | 206° |
| 2026-04-22 02:05 | 37.25042 | 140.49307 | 25807 ft | 343 kts | 206° |
| 2026-04-22 02:05 | 37.22635 | 140.48619 | 25547 ft | 339 kts | 206° |
| 2026-04-22 02:05 | 37.20324 | 140.47952 | 25305 ft | 345 kts | 206° |
| 2026-04-22 02:06 | 37.17827 | 140.47232 | 25040 ft | 343 kts | 205° |
| 2026-04-22 02:06 | 37.15285 | 140.46512 | 24757 ft | 338 kts | 205° |
| 2026-04-22 02:06 | 37.12707 | 140.45781 | 24483 ft | 338 kts | 206° |
| 2026-04-22 02:06 | 37.10205 | 140.45067 | 24213 ft | 339 kts | 205° |
| 2026-04-22 02:07 | 37.07854 | 140.44403 | 23954 ft | 336 kts | 206° |
| 2026-04-22 02:07 | 37.05546 | 140.43749 | 23719 ft | 339 kts | 205° |
| 2026-04-22 02:07 | 37.03257 | 140.43102 | 23471 ft | 338 kts | 205° |
| 2026-04-22 02:07 | 37.00975 | 140.42459 | 23220 ft | 332 kts | 205° |
| 2026-04-22 02:08 | 36.98739 | 140.41836 | 22872 ft | 327 kts | 205° |
| 2026-04-22 02:08 | 36.96529 | 140.41217 | 22463 ft | 323 kts | 205° |
| 2026-04-22 02:08 | 36.94361 | 140.40610 | 22047 ft | 321 kts | 205° |
| 2026-04-22 02:08 | 36.92186 | 140.39998 | 21621 ft | 318 kts | 204° |
| 2026-04-22 02:09 | 36.90061 | 140.39398 | 21215 ft | 315 kts | 204° |
| 2026-04-22 02:09 | 36.87933 | 140.38796 | 20798 ft | 312 kts | 204° |
| 2026-04-22 02:09 | 36.85795 | 140.38191 | 20384 ft | 309 kts | 204° |
| 2026-04-22 02:09 | 36.83645 | 140.37584 | 19968 ft | 306 kts | 203° |
| 2026-04-22 02:10 | 36.82006 | 140.37123 | 19654 ft | 304 kts | 204° |
| 2026-04-22 02:10 | 36.80418 | 140.36678 | 19347 ft | 301 kts | 203° |
| 2026-04-22 02:10 | 36.78148 | 140.36041 | 18906 ft | 298 kts | 203° |
| 2026-04-22 02:10 | 36.75919 | 140.35416 | 18472 ft | 295 kts | 203° |
| 2026-04-22 02:11 | 36.73913 | 140.34863 | 18081 ft | 293 kts | 201° |
| 2026-04-22 02:11 | 36.71892 | 140.34405 | 17703 ft | 294 kts | 198° |
| 2026-04-22 02:11 | 36.69809 | 140.33995 | 17309 ft | 312 kts | 198° |
| 2026-04-22 02:11 | 36.67655 | 140.33577 | 16883 ft | 316 kts | 197° |
| 2026-04-22 02:12 | 36.65471 | 140.33160 | 16468 ft | 314 kts | 197° |
| 2026-04-22 02:12 | 36.63240 | 140.32730 | 16059 ft | 310 kts | 197° |
| 2026-04-22 02:12 | 36.60925 | 140.32278 | 16026 ft | 304 kts | 197° |
| 2026-04-22 02:12 | 36.58698 | 140.31767 | 15852 ft | 310 kts | 200° |
| 2026-04-22 02:13 | 36.56427 | 140.31108 | 15582 ft | 308 kts | 201° |
| 2026-04-22 02:13 | 36.54131 | 140.30408 | 15308 ft | 306 kts | 201° |
| 2026-04-22 02:13 | 36.51836 | 140.29724 | 15030 ft | 305 kts | 201° |
| 2026-04-22 02:13 | 36.49525 | 140.29053 | 14770 ft | 307 kts | 200° |
| 2026-04-22 02:14 | 36.47257 | 140.28410 | 14496 ft | 305 kts | 199° |
| 2026-04-22 02:14 | 36.45075 | 140.27797 | 14238 ft | 306 kts | 199° |
| 2026-04-22 02:14 | 36.42936 | 140.27199 | 13997 ft | 306 kts | 199° |
| 2026-04-22 02:14 | 36.40839 | 140.26613 | 13735 ft | 306 kts | 199° |
| 2026-04-22 02:15 | 36.38774 | 140.26033 | 13478 ft | 305 kts | 199° |
| 2026-04-22 02:15 | 36.36714 | 140.25456 | 13236 ft | 304 kts | 199° |
| 2026-04-22 02:15 | 36.34655 | 140.24880 | 12989 ft | 302 kts | 199° |
| 2026-04-22 02:15 | 36.32599 | 140.24304 | 12727 ft | 301 kts | 198° |
| 2026-04-22 02:16 | 36.30553 | 140.23732 | 12485 ft | 302 kts | 199° |
| 2026-04-22 02:16 | 36.28513 | 140.23161 | 12238 ft | 301 kts | 198° |
| 2026-04-22 02:16 | 36.26457 | 140.22588 | 11988 ft | 299 kts | 198° |
| 2026-04-22 02:16 | 36.24369 | 140.22005 | 11732 ft | 298 kts | 198° |
| 2026-04-22 02:17 | 36.22358 | 140.21445 | 11491 ft | 296 kts | 198° |
| 2026-04-22 02:17 | 36.20341 | 140.20879 | 11245 ft | 297 kts | 198° |
| 2026-04-22 02:17 | 36.18319 | 140.20316 | 10999 ft | 296 kts | 198° |
| 2026-04-22 02:17 | 36.16301 | 140.19753 | 10745 ft | 295 kts | 198° |
| 2026-04-22 02:18 | 36.14313 | 140.19200 | 10498 ft | 293 kts | 198° |
| 2026-04-22 02:18 | 36.12339 | 140.18651 | 10250 ft | 292 kts | 198° |
| 2026-04-22 02:18 | 36.10330 | 140.18091 | 9999 ft | 294 kts | 198° |
| 2026-04-22 02:18 | 36.08342 | 140.17539 | 9744 ft | 289 kts | 197° |
| 2026-04-22 02:19 | 36.06400 | 140.17001 | 9467 ft | 280 kts | 197° |
| 2026-04-22 02:19 | 36.04535 | 140.16486 | 9268 ft | 273 kts | 198° |
| 2026-04-22 02:19 | 36.02634 | 140.15958 | 9009 ft | 268 kts | 197° |
| 2026-04-22 02:19 | 36.00677 | 140.15411 | 8748 ft | 266 kts | 197° |
| 2026-04-22 02:20 | 35.98743 | 140.14871 | 8490 ft | 265 kts | 197° |
| 2026-04-22 02:20 | 35.96934 | 140.14368 | 8240 ft | 262 kts | 197° |
| 2026-04-22 02:20 | 35.95168 | 140.13878 | 7990 ft | 261 kts | 196° |
| 2026-04-22 02:20 | 35.93381 | 140.13382 | 7737 ft | 261 kts | 196° |
| 2026-04-22 02:21 | 35.91615 | 140.12894 | 7486 ft | 257 kts | 195° |
| 2026-04-22 02:21 | 35.89968 | 140.12436 | 7249 ft | 256 kts | 195° |
| 2026-04-22 02:21 | 35.88211 | 140.11948 | 6999 ft | 255 kts | 195° |
| 2026-04-22 02:21 | 35.86469 | 140.11464 | 6748 ft | 253 kts | 195° |
| 2026-04-22 02:22 | 35.84767 | 140.10992 | 6501 ft | 251 kts | 194° |
| 2026-04-22 02:22 | 35.83058 | 140.10518 | 6254 ft | 251 kts | 194° |
| 2026-04-22 02:22 | 35.81345 | 140.10106 | 6001 ft | 249 kts | 188° |
| 2026-04-22 02:22 | 35.79603 | 140.10234 | 5749 ft | 252 kts | 167° |
| 2026-04-22 02:23 | 35.77933 | 140.10986 | 5537 ft | 252 kts | 160° |
| 2026-04-22 02:23 | 35.76343 | 140.11822 | 5342 ft | 245 kts | 160° |
| 2026-04-22 02:23 | 35.74717 | 140.12624 | 5043 ft | 242 kts | 161° |
| 2026-04-22 02:23 | 35.73107 | 140.13361 | 4738 ft | 248 kts | 162° |
| 2026-04-22 02:24 | 35.71522 | 140.14204 | 4482 ft | 247 kts | 152° |
| 2026-04-22 02:24 | 35.70182 | 140.15508 | 4484 ft | 248 kts | 139° |
| 2026-04-22 02:24 | 35.68885 | 140.17127 | 4475 ft | 252 kts | 137° |
| 2026-04-22 02:24 | 35.67635 | 140.18700 | 4477 ft | 250 kts | 138° |
| 2026-04-22 02:25 | 35.66387 | 140.20201 | 4474 ft | 251 kts | 140° |
| 2026-04-22 02:25 | 35.64996 | 140.21489 | 4471 ft | 245 kts | 155° |
| 2026-04-22 02:25 | 35.63380 | 140.22266 | 4487 ft | 236 kts | 165° |
| 2026-04-22 02:25 | 35.61700 | 140.22798 | 4472 ft | 224 kts | 175° |
| 2026-04-22 02:26 | 35.60104 | 140.22714 | 4481 ft | 216 kts | 196° |
| 2026-04-22 02:26 | 35.58780 | 140.21860 | 4354 ft | 215 kts | 221° |
| 2026-04-22 02:26 | 35.57906 | 140.20393 | 4178 ft | 212 kts | 238° |
| 2026-04-22 02:26 | 35.57239 | 140.18791 | 3991 ft | 211 kts | 244° |
| 2026-04-22 02:27 | 35.56933 | 140.17013 | 3988 ft | 216 kts | 265° |
| 2026-04-22 02:27 | 35.56988 | 140.15230 | 3980 ft | 205 kts | 269° |
| 2026-04-22 02:27 | 35.57040 | 140.13524 | 3985 ft | 191 kts | 266° |
| 2026-04-22 02:27 | 35.57040 | 140.11908 | 3975 ft | 188 kts | 265° |
| 2026-04-22 02:28 | 35.57036 | 140.10309 | 3975 ft | 188 kts | 265° |
| 2026-04-22 02:28 | 35.57035 | 140.08696 | 3973 ft | 188 kts | 265° |
| 2026-04-22 02:28 | 35.57034 | 140.07040 | 3975 ft | 188 kts | 265° |
| 2026-04-22 02:28 | 35.57030 | 140.05377 | 3888 ft | 192 kts | 265° |
| 2026-04-22 02:29 | 35.57027 | 140.03728 | 3634 ft | 186 kts | 265° |
| 2026-04-22 02:29 | 35.57025 | 140.02094 | 3336 ft | 186 kts | 265° |
| 2026-04-22 02:29 | 35.57024 | 140.00453 | 3019 ft | 177 kts | 265° |
| 2026-04-22 02:29 | 35.57022 | 139.98991 | 2741 ft | 168 kts | 264° |
| 2026-04-22 02:30 | 35.57017 | 139.97571 | 2446 ft | 165 kts | 264° |
| 2026-04-22 02:30 | 35.57012 | 139.96094 | 2139 ft | 164 kts | 263° |
| 2026-04-22 02:30 | 35.57004 | 139.94641 | 1830 ft | 164 kts | 263° |
| 2026-04-22 02:30 | 35.57007 | 139.93170 | 1517 ft | 162 kts | 264° |
| 2026-04-22 02:31 | 35.57009 | 139.91791 | 1222 ft | 158 kts | 263° |
| 2026-04-22 02:31 | 35.57000 | 139.90506 | 985 ft | 147 kts | 263° |
| 2026-04-22 02:31 | 35.56992 | 139.89244 | 967 ft | 150 kts | 264° |
| 2026-04-22 02:31 | 35.56990 | 139.87955 | 964 ft | 147 kts | 264° |
| 2026-04-22 02:32 | 35.56860 | 139.86713 | 825 ft | 150 kts | 249° |
| 2026-04-22 02:32 | 35.56484 | 139.85561 | 723 ft | 143 kts | 236° |
| 2026-04-22 02:32 | 35.55969 | 139.84488 | 543 ft | 144 kts | 233° |
| 2026-04-22 02:32 | 35.55351 | 139.83578 | 393 ft | 133 kts | 218° |
| 2026-04-22 02:33 | 35.54619 | 139.82842 | 217 ft | 136 kts | 217° |
| 2026-04-22 02:33 | 35.53882 | 139.82010 | 56 ft | 141 kts | 219° |
| 2026-04-22 02:33 | 35.53209 | 139.81256 | 28 ft | 93 kts | 221° |
| 2026-04-22 02:33 | 35.52902 | 139.80908 | 28 ft | 23 kts | 221° |
| 2026-04-22 02:34 | 35.52835 | 139.80835 | 28 ft | 9 kts | 223° |
| 2026-04-22 02:34 | 35.52793 | 139.80765 | 28 ft | 8 kts | 261° |
| 2026-04-22 02:34 | 35.52820 | 139.80699 | 28 ft | 8 kts | 310° |
| 2026-04-22 02:34 | 35.52860 | 139.80646 | 28 ft | 7 kts | 313° |
| 2026-04-22 02:35 | 35.52903 | 139.80595 | 28 ft | 9 kts | 326° |
| 2026-04-22 02:35 | 35.52976 | 139.80542 | 28 ft | 11 kts | 331° |
| 2026-04-22 02:35 | 35.53049 | 139.80492 | 28 ft | 10 kts | 329° |
| 2026-04-22 02:35 | 35.53112 | 139.80447 | 28 ft | 10 kts | 330° |
| 2026-04-22 02:36 | 35.53180 | 139.80399 | 28 ft | 11 kts | 330° |
| 2026-04-22 02:36 | 35.53251 | 139.80350 | 28 ft | 10 kts | 330° |
| 2026-04-22 02:36 | 35.53350 | 139.80278 | 28 ft | 20 kts | 329° |
| 2026-04-22 02:36 | 35.53508 | 139.80167 | 28 ft | 25 kts | 329° |
| 2026-04-22 02:37 | 35.53667 | 139.80054 | 28 ft | 9 kts | 329° |
| 2026-04-22 02:37 | 35.53708 | 139.79994 | 28 ft | 8 kts | 282° |
| 2026-04-22 02:37 | 35.53692 | 139.79929 | 28 ft | 6 kts | 241° |
| 2026-04-22 02:37 | 35.53657 | 139.79854 | 28 ft | 13 kts | 239° |
| 2026-04-22 02:38 | 35.53582 | 139.79697 | 28 ft | 24 kts | 240° |
| 2026-04-22 02:38 | 35.53489 | 139.79498 | 28 ft | 23 kts | 240° |
| 2026-04-22 02:38 | 35.53399 | 139.79306 | 28 ft | 17 kts | 240° |
| 2026-04-22 02:38 | 35.53378 | 139.79181 | 28 ft | 13 kts | 290° |
| 2026-04-22 02:39 | 35.53445 | 139.79100 | 28 ft | 12 kts | 329° |
| 2026-04-22 02:39 | 35.53523 | 139.79044 | 28 ft | 12 kts | 330° |
| 2026-04-22 02:39 | 35.53632 | 139.78966 | 28 ft | 22 kts | 330° |
| 2026-04-22 02:39 | 35.53808 | 139.78842 | 28 ft | 28 kts | 330° |
| 2026-04-22 02:40 | 35.53988 | 139.78714 | 28 ft | 28 kts | 331° |
| 2026-04-22 02:40 | 35.54173 | 139.78584 | 28 ft | 28 kts | 329° |
| 2026-04-22 02:40 | 35.54346 | 139.78461 | 28 ft | 27 kts | 330° |
| 2026-04-22 02:40 | 35.54517 | 139.78339 | 28 ft | 24 kts | 330° |
| 2026-04-22 02:41 | 35.54624 | 139.78270 | 28 ft | 7 kts | 356° |
| 2026-04-22 02:41 | 35.54675 | 139.78302 | 28 ft | 7 kts | 60° |
| 2026-04-22 02:41 | 35.54703 | 139.78361 | 28 ft | 6 kts | 60° |
| 2026-04-22 02:41 | 35.54721 | 139.78400 | 28 ft | 2 kts | 60° |
| 2026-04-22 02:42 | 35.54724 | 139.78407 | 28 ft | 0 kts | 60° |